sensor_id;sensor_type;location;lat;lon;timestamp;pressure;altitude;pressure_sealevel;temperature;humidity
3294;BME280;1659;51.470;6.770;2024-01-06T00:00:41;100116.41;;;6.40;100.00
3294;BME280;1659;51.470;6.770;2024-01-06T00:03:08;100115.56;;;6.40;100.00
3294;BME280;1659;51.470;6.770;2024-01-06T00:05:35;100113.78;;;6.40;100.00
3294;BME280;1659;51.470;6.770;2024-01-06T00:08:01;100109.41;;;6.41;100.00
3294;BME280;1659;51.470;6.770;2024-01-06T00:10:29;100099.78;;;6.41;100.00
3294;BME280;1659;51.470;6.770;2024-01-06T00:12:56;100111.16;;;6.42;100.00
3294;BME280;1659;51.470;6.770;2024-01-06T00:15:22;100110.28;;;6.41;100.00
3294;BME280;1659;51.470;6.770;2024-01-06T00:17:49;100119.88;;;6.42;100.00
3294;BME280;1659;51.470;6.770;2024-01-06T00:20:15;100119.00;;;6.43;100.00
3294;BME280;1659;51.470;6.770;2024-01-06T00:22:42;100115.53;;;6.43;100.00
3294;BME280;1659;51.470;6.770;2024-01-06T00:25:09;100122.50;;;6.44;100.00
3294;BME280;1659;51.470;6.770;2024-01-06T00:27:37;100128.66;;;6.43;100.00
3294;BME280;1659;51.470;6.770;2024-01-06T00:30:05;100124.25;;;6.43;100.00
3294;BME280;1659;51.470;6.770;2024-01-06T00:32:32;100131.22;;;6.45;100.00
3294;BME280;1659;51.470;6.770;2024-01-06T00:34:58;100133.84;;;6.46;100.00
3294;BME280;1659;51.470;6.770;2024-01-06T00:37:25;100132.97;;;6.47;100.00
3294;BME280;1659;51.470;6.770;2024-01-06T00:39:51;100136.44;;;6.49;100.00
3294;BME280;1659;51.470;6.770;2024-01-06T00:42:18;100139.03;;;6.51;100.00
3294;BME280;1659;51.470;6.770;2024-01-06T00:44:46;100146.91;;;6.52;100.00
3294;BME280;1659;51.470;6.770;2024-01-06T00:47:12;100143.38;;;6.53;100.00
3294;BME280;1659;51.470;6.770;2024-01-06T00:49:39;100151.25;;;6.53;100.00
3294;BME280;1659;51.470;6.770;2024-01-06T00:52:06;100146.00;;;6.53;100.00
3294;BME280;1659;51.470;6.770;2024-01-06T00:54:32;100145.13;;;6.54;100.00
3294;BME280;1659;51.470;6.770;2024-01-06T00:56:59;100144.25;;;6.54;100.00
3294;BME280;1659;51.470;6.770;2024-01-06T00:59:25;100150.38;;;6.54;100.00
3294;BME280;1659;51.470;6.770;2024-01-06T01:01:54;100152.13;;;6.54;100.00
3294;BME280;1659;51.470;6.770;2024-01-06T01:04:20;100154.75;;;6.54;100.00
3294;BME280;1659;51.470;6.770;2024-01-06T01:06:47;100160.88;;;6.54;100.00
3294;BME280;1659;51.470;6.770;2024-01-06T01:09:14;100161.72;;;6.55;100.00
3294;BME280;1659;51.470;6.770;2024-01-06T01:11:40;100155.63;;;6.53;100.00
3294;BME280;1659;51.470;6.770;2024-01-06T01:14:07;100154.78;;;6.52;100.00
3294;BME280;1659;51.470;6.770;2024-01-06T01:16:34;100162.66;;;6.52;100.00
3294;BME280;1659;51.470;6.770;2024-01-06T01:19:02;100160.91;;;6.51;100.00
3294;BME280;1659;51.470;6.770;2024-01-06T01:21:28;100165.28;;;6.52;100.00
3294;BME280;1659;51.470;6.770;2024-01-06T01:23:55;100159.19;;;6.50;100.00
3294;BME280;1659;51.470;6.770;2024-01-06T01:26:22;100163.53;;;6.50;100.00
3294;BME280;1659;51.470;6.770;2024-01-06T01:28:48;100169.69;;;6.50;100.00
3294;BME280;1659;51.470;6.770;2024-01-06T01:31:15;100167.91;;;6.51;100.00
3294;BME280;1659;51.470;6.770;2024-01-06T01:33:41;100172.28;;;6.52;100.00
3294;BME280;1659;51.470;6.770;2024-01-06T01:36:09;100174.94;;;6.50;100.00
3294;BME280;1659;51.470;6.770;2024-01-06T01:38:36;100174.94;;;6.50;100.00
3294;BME280;1659;51.470;6.770;2024-01-06T01:41:03;100181.03;;;6.51;100.00
3294;BME280;1659;51.470;6.770;2024-01-06T01:43:29;100181.91;;;6.51;100.00
3294;BME280;1659;51.470;6.770;2024-01-06T01:45:57;100186.28;;;6.52;100.00
3294;BME280;1659;51.470;6.770;2024-01-06T01:48:24;100185.41;;;6.52;100.00
3294;BME280;1659;51.470;6.770;2024-01-06T01:50:51;100189.75;;;6.53;100.00
3294;BME280;1659;51.470;6.770;2024-01-06T01:53:20;100192.38;;;6.53;100.00
3294;BME280;1659;51.470;6.770;2024-01-06T01:55:49;100194.16;;;6.52;100.00
3294;BME280;1659;51.470;6.770;2024-01-06T01:58:17;100190.59;;;6.55;100.00
3294;BME280;1659;51.470;6.770;2024-01-06T02:00:44;100202.00;;;6.55;100.00
3294;BME280;1659;51.470;6.770;2024-01-06T02:03:11;100197.59;;;6.56;100.00
3294;BME280;1659;51.470;6.770;2024-01-06T02:05:39;100202.84;;;6.56;100.00
3294;BME280;1659;51.470;6.770;2024-01-06T02:08:06;100204.56;;;6.57;100.00
3294;BME280;1659;51.470;6.770;2024-01-06T02:10:34;100208.94;;;6.58;100.00
3294;BME280;1659;51.470;6.770;2024-01-06T02:13:07;100205.47;;;6.57;100.00
3294;BME280;1659;51.470;6.770;2024-01-06T02:15:34;100207.19;;;6.58;100.00
3294;BME280;1659;51.470;6.770;2024-01-06T02:18:01;100215.06;;;6.57;100.00
3294;BME280;1659;51.470;6.770;2024-01-06T02:20:29;100216.84;;;6.56;100.00
3294;BME280;1659;51.470;6.770;2024-01-06T02:22:58;100222.94;;;6.58;100.00
3294;BME280;1659;51.470;6.770;2024-01-06T02:25:26;100217.69;;;6.57;100.00
3294;BME280;1659;51.470;6.770;2024-01-06T02:27:52;100220.31;;;6.57;100.00
3294;BME280;1659;51.470;6.770;2024-01-06T02:30:19;100221.22;;;6.56;100.00
3294;BME280;1659;51.470;6.770;2024-01-06T02:32:45;100221.22;;;6.56;100.00
3294;BME280;1659;51.470;6.770;2024-01-06T02:35:12;100224.72;;;6.56;100.00
3294;BME280;1659;51.470;6.770;2024-01-06T02:37:38;100229.97;;;6.56;100.00
3294;BME280;1659;51.470;6.770;2024-01-06T02:40:08;100236.97;;;6.56;100.00
3294;BME280;1659;51.470;6.770;2024-01-06T02:42:35;100241.38;;;6.54;100.00
3294;BME280;1659;51.470;6.770;2024-01-06T02:45:02;100246.63;;;6.54;100.00
3294;BME280;1659;51.470;6.770;2024-01-06T02:47:28;100246.66;;;6.52;100.00
3294;BME280;1659;51.470;6.770;2024-01-06T02:49:55;100249.28;;;6.51;100.00
3294;BME280;1659;51.470;6.770;2024-01-06T02:52:21;100258.91;;;6.50;100.00
3294;BME280;1659;51.470;6.770;2024-01-06T02:54:48;100258.03;;;6.48;100.00
3294;BME280;1659;51.470;6.770;2024-01-06T02:57:16;100268.59;;;6.47;100.00
3294;BME280;1659;51.470;6.770;2024-01-06T02:59:43;100269.47;;;6.46;100.00
3294;BME280;1659;51.470;6.770;2024-01-06T03:02:11;100279.09;;;6.43;100.00
3294;BME280;1659;51.470;6.770;2024-01-06T03:04:37;100276.53;;;6.37;100.00
3294;BME280;1659;51.470;6.770;2024-01-06T03:07:04;100297.56;;;6.34;100.00
3294;BME280;1659;51.470;6.770;2024-01-06T03:09:30;100297.59;;;6.31;100.00
3294;BME280;1659;51.470;6.770;2024-01-06T03:11:57;100295.00;;;6.27;100.00
3294;BME280;1659;51.470;6.770;2024-01-06T03:14:25;100295.91;;;6.24;100.00
3294;BME280;1659;51.470;6.770;2024-01-06T03:16:51;100306.44;;;6.18;100.00
3294;BME280;1659;51.470;6.770;2024-01-06T03:19:18;100309.97;;;6.14;100.00
3294;BME280;1659;51.470;6.770;2024-01-06T03:21:45;100303.88;;;6.10;100.00
3294;BME280;1659;51.470;6.770;2024-01-06T03:24:11;100311.75;;;6.09;100.00
3294;BME280;1659;51.470;6.770;2024-01-06T03:26:38;100318.78;;;6.08;100.00
3294;BME280;1659;51.470;6.770;2024-01-06T03:29:04;100315.25;;;6.06;100.00
3294;BME280;1659;51.470;6.770;2024-01-06T03:31:32;100317.03;;;6.05;100.00
3294;BME280;1659;51.470;6.770;2024-01-06T03:33:59;100315.28;;;6.04;100.00
3294;BME280;1659;51.470;6.770;2024-01-06T03:36:25;100312.69;;;6.01;100.00
3294;BME280;1659;51.470;6.770;2024-01-06T03:38:51;100320.56;;;5.98;100.00
3294;BME280;1659;51.470;6.770;2024-01-06T03:41:18;100318.84;;;5.96;100.00
3294;BME280;1659;51.470;6.770;2024-01-06T03:43:44;100324.09;;;5.91;100.00
3294;BME280;1659;51.470;6.770;2024-01-06T03:46:11;100330.22;;;5.89;100.00
3294;BME280;1659;51.470;6.770;2024-01-06T03:48:39;100338.09;;;5.89;100.00
3294;BME280;1659;51.470;6.770;2024-01-06T03:51:06;100339.00;;;5.84;100.00
3294;BME280;1659;51.470;6.770;2024-01-06T03:53:32;100342.53;;;5.82;100.00
3294;BME280;1659;51.470;6.770;2024-01-06T03:55:59;100338.16;;;5.79;100.00
3294;BME280;1659;51.470;6.770;2024-01-06T03:58:26;100345.16;;;5.76;100.00
3294;BME280;1659;51.470;6.770;2024-01-06T04:00:52;100353.03;;;5.73;100.00
3294;BME280;1659;51.470;6.770;2024-01-06T04:03:19;100350.41;;;5.73;100.00
3294;BME280;1659;51.470;6.770;2024-01-06T04:05:46;100356.56;;;5.72;100.00
3294;BME280;1659;51.470;6.770;2024-01-06T04:08:13;100357.41;;;5.72;100.00
3294;BME280;1659;51.470;6.770;2024-01-06T04:10:40;100363.53;;;5.71;100.00
3294;BME280;1659;51.470;6.770;2024-01-06T04:13:07;100356.56;;;5.70;100.00
3294;BME280;1659;51.470;6.770;2024-01-06T04:15:34;100367.91;;;5.67;100.00
3294;BME280;1659;51.470;6.770;2024-01-06T04:18:02;100361.81;;;5.67;100.00
3294;BME280;1659;51.470;6.770;2024-01-06T04:20:29;100367.06;;;5.67;100.00
3294;BME280;1659;51.470;6.770;2024-01-06T04:22:56;100366.19;;;5.68;100.00
3294;BME280;1659;51.470;6.770;2024-01-06T04:25:23;100363.56;;;5.68;100.00
3294;BME280;1659;51.470;6.770;2024-01-06T04:27:49;100367.91;;;5.67;100.00
3294;BME280;1659;51.470;6.770;2024-01-06T04:30:16;100360.94;;;5.68;100.00
3294;BME280;1659;51.470;6.770;2024-01-06T04:32:43;100360.94;;;5.68;100.00
3294;BME280;1659;51.470;6.770;2024-01-06T04:35:10;100361.81;;;5.67;100.00
3294;BME280;1659;51.470;6.770;2024-01-06T04:37:36;100374.06;;;5.68;100.00
3294;BME280;1659;51.470;6.770;2024-01-06T04:40:05;100367.91;;;5.71;100.00
3294;BME280;1659;51.470;6.770;2024-01-06T04:42:33;100373.16;;;5.69;100.00
3294;BME280;1659;51.470;6.770;2024-01-06T04:44:59;100381.88;;;5.71;100.00
3294;BME280;1659;51.470;6.770;2024-01-06T04:47:26;100374.91;;;5.70;100.00
3294;BME280;1659;51.470;6.770;2024-01-06T04:49:53;100376.63;;;5.70;100.00
3294;BME280;1659;51.470;6.770;2024-01-06T04:52:19;100381.88;;;5.70;100.00
3294;BME280;1659;51.470;6.770;2024-01-06T04:54:46;100378.41;;;5.67;100.00
3294;BME280;1659;51.470;6.770;2024-01-06T04:57:14;100374.91;;;5.68;100.00
3294;BME280;1659;51.470;6.770;2024-01-06T04:59:41;100384.53;;;5.68;100.00
3294;BME280;1659;51.470;6.770;2024-01-06T05:02:07;100389.78;;;5.65;100.00
3294;BME280;1659;51.470;6.770;2024-01-06T05:04:34;100391.56;;;5.61;100.00
3294;BME280;1659;51.470;6.770;2024-01-06T05:07:00;100388.94;;;5.60;100.00
3294;BME280;1659;51.470;6.770;2024-01-06T05:09:28;100398.56;;;5.59;100.00
3294;BME280;1659;51.470;6.770;2024-01-06T05:11:54;100395.03;;;5.57;100.00
3294;BME280;1659;51.470;6.770;2024-01-06T05:14:22;100404.66;;;5.57;100.00
3294;BME280;1659;51.470;6.770;2024-01-06T05:16:49;100402.06;;;5.54;100.00
3294;BME280;1659;51.470;6.770;2024-01-06T05:19:15;100404.72;;;5.51;100.00
3294;BME280;1659;51.470;6.770;2024-01-06T05:21:45;100408.19;;;5.48;100.00
3294;BME280;1659;51.470;6.770;2024-01-06T05:24:12;100406.47;;;5.45;100.00
3294;BME280;1659;51.470;6.770;2024-01-06T05:26:39;100405.59;;;5.43;100.00
3294;BME280;1659;51.470;6.770;2024-01-06T05:29:06;100409.09;;;5.42;100.00
3294;BME280;1659;51.470;6.770;2024-01-06T05:31:34;100419.59;;;5.42;100.00
3294;BME280;1659;51.470;6.770;2024-01-06T05:34:00;100423.97;;;5.42;100.00
3294;BME280;1659;51.470;6.770;2024-01-06T05:36:27;100429.19;;;5.40;100.00
3294;BME280;1659;51.470;6.770;2024-01-06T05:38:53;100423.97;;;5.39;100.00
3294;BME280;1659;51.470;6.770;2024-01-06T05:41:20;100423.09;;;5.38;100.00
3294;BME280;1659;51.470;6.770;2024-01-06T05:43:46;100430.06;;;5.36;100.00
3294;BME280;1659;51.470;6.770;2024-01-06T05:46:20;100430.06;;;5.35;100.00
3294;BME280;1659;51.470;6.770;2024-01-06T05:48:48;100428.34;;;5.32;100.00
3294;BME280;1659;51.470;6.770;2024-01-06T05:51:15;100434.44;;;5.31;100.00
3294;BME280;1659;51.470;6.770;2024-01-06T05:53:41;100431.81;;;5.31;100.00
3294;BME280;1659;51.470;6.770;2024-01-06T05:56:08;100432.72;;;5.32;100.00
3294;BME280;1659;51.470;6.770;2024-01-06T05:58:35;100431.84;;;5.29;100.00
3294;BME280;1659;51.470;6.770;2024-01-06T06:01:02;100432.72;;;5.27;100.00
3294;BME280;1659;51.470;6.770;2024-01-06T06:03:28;100451.06;;;5.24;100.00
3294;BME280;1659;51.470;6.770;2024-01-06T06:05:56;100444.09;;;5.23;100.00
3294;BME280;1659;51.470;6.770;2024-01-06T06:08:23;100450.19;;;5.23;100.00
3294;BME280;1659;51.470;6.770;2024-01-06T06:10:49;100457.19;;;5.23;100.00
3294;BME280;1659;51.470;6.770;2024-01-06T06:13:26;100471.16;;;5.23;100.00
3294;BME280;1659;51.470;6.770;2024-01-06T06:15:53;100470.28;;;5.23;100.00
3294;BME280;1659;51.470;6.770;2024-01-06T06:18:20;100470.28;;;5.23;100.00
3294;BME280;1659;51.470;6.770;2024-01-06T06:20:46;100472.00;;;5.24;100.00
3294;BME280;1659;51.470;6.770;2024-01-06T06:23:14;100479.88;;;5.25;100.00
3294;BME280;1659;51.470;6.770;2024-01-06T06:25:41;100479.88;;;5.27;100.00
3294;BME280;1659;51.470;6.770;2024-01-06T06:28:08;100500.84;;;5.28;100.00
3294;BME280;1659;51.470;6.770;2024-01-06T06:30:34;100506.06;;;5.28;100.00
3294;BME280;1659;51.470;6.770;2024-01-06T06:33:01;100506.94;;;5.29;100.00
3294;BME280;1659;51.470;6.770;2024-01-06T06:35:28;100513.03;;;5.31;100.00
3294;BME280;1659;51.470;6.770;2024-01-06T06:37:54;100507.81;;;5.31;100.00
3294;BME280;1659;51.470;6.770;2024-01-06T06:40:22;100514.81;;;5.32;100.00
3294;BME280;1659;51.470;6.770;2024-01-06T06:42:49;100517.41;;;5.32;100.00
3294;BME280;1659;51.470;6.770;2024-01-06T06:45:15;100509.56;;;5.32;100.00
3294;BME280;1659;51.470;6.770;2024-01-06T06:47:42;100520.03;;;5.30;100.00
3294;BME280;1659;51.470;6.770;2024-01-06T06:50:08;100534.88;;;5.25;100.00
3294;BME280;1659;51.470;6.770;2024-01-06T06:52:35;100535.78;;;5.23;100.00
3294;BME280;1659;51.470;6.770;2024-01-06T06:55:01;100539.25;;;5.20;100.00
3294;BME280;1659;51.470;6.770;2024-01-06T06:57:29;100538.38;;;5.18;100.00
3294;BME280;1659;51.470;6.770;2024-01-06T06:59:56;100545.38;;;5.15;100.00
3294;BME280;1659;51.470;6.770;2024-01-06T07:02:22;100549.75;;;5.13;100.00
3294;BME280;1659;51.470;6.770;2024-01-06T07:04:49;100557.59;;;5.11;100.00
3294;BME280;1659;51.470;6.770;2024-01-06T07:07:16;100567.22;;;5.09;100.00
3294;BME280;1659;51.470;6.770;2024-01-06T07:09:43;100570.69;;;5.06;100.00
3294;BME280;1659;51.470;6.770;2024-01-06T07:12:09;100575.94;;;5.03;100.00
3294;BME280;1659;51.470;6.770;2024-01-06T07:14:37;100577.69;;;4.98;100.00
3294;BME280;1659;51.470;6.770;2024-01-06T07:17:04;100582.03;;;4.93;100.00
3294;BME280;1659;51.470;6.770;2024-01-06T07:19:31;100585.50;;;4.87;100.00
3294;BME280;1659;51.470;6.770;2024-01-06T07:21:58;100589.84;;;4.84;100.00
3294;BME280;1659;51.470;6.770;2024-01-06T07:24:24;100597.72;;;4.81;100.00
3294;BME280;1659;51.470;6.770;2024-01-06T07:26:52;100597.72;;;4.79;100.00
3294;BME280;1659;51.470;6.770;2024-01-06T07:29:18;100601.19;;;4.78;100.00
3294;BME280;1659;51.470;6.770;2024-01-06T07:31:46;100610.81;;;4.78;100.00
3294;BME280;1659;51.470;6.770;2024-01-06T07:34:13;100614.28;;;4.78;100.00
3294;BME280;1659;51.470;6.770;2024-01-06T07:36:41;100611.66;;;4.77;100.00
3294;BME280;1659;51.470;6.770;2024-01-06T07:39:07;100612.53;;;4.74;100.00
3294;BME280;1659;51.470;6.770;2024-01-06T07:41:34;100619.53;;;4.73;100.00
3294;BME280;1659;51.470;6.770;2024-01-06T07:44:01;100619.53;;;4.73;100.00
3294;BME280;1659;51.470;6.770;2024-01-06T07:46:27;100629.09;;;4.71;100.00
3294;BME280;1659;51.470;6.770;2024-01-06T07:48:54;100623.00;;;4.65;100.00
3294;BME280;1659;51.470;6.770;2024-01-06T07:51:21;100627.31;;;4.58;100.00
3294;BME280;1659;51.470;6.770;2024-01-06T07:53:47;100630.78;;;4.54;100.00
3294;BME280;1659;51.470;6.770;2024-01-06T07:56:14;100635.16;;;4.53;100.00
3294;BME280;1659;51.470;6.770;2024-01-06T07:58:41;100636.91;;;4.53;100.00
3294;BME280;1659;51.470;6.770;2024-01-06T08:01:07;100653.47;;;4.53;100.00
3294;BME280;1659;51.470;6.770;2024-01-06T08:03:34;100654.31;;;4.52;100.00
3294;BME280;1659;51.470;6.770;2024-01-06T08:06:02;100659.56;;;4.51;100.00
3294;BME280;1659;51.470;6.770;2024-01-06T08:08:29;100658.66;;;4.49;100.00
3294;BME280;1659;51.470;6.770;2024-01-06T08:10:55;100665.66;;;4.50;100.00
3294;BME280;1659;51.470;6.770;2024-01-06T08:13:22;100675.25;;;4.48;100.00
3294;BME280;1659;51.470;6.770;2024-01-06T08:15:48;100680.47;;;4.45;100.00
3294;BME280;1659;51.470;6.770;2024-01-06T08:18:16;100684.81;;;4.43;100.00
3294;BME280;1659;51.470;6.770;2024-01-06T08:20:43;100678.72;;;4.41;100.00
3294;BME280;1659;51.470;6.770;2024-01-06T08:23:11;100687.41;;;4.40;100.00
3294;BME280;1659;51.470;6.770;2024-01-06T08:25:37;100689.16;;;4.38;100.00
3294;BME280;1659;51.470;6.770;2024-01-06T08:28:04;100687.38;;;4.37;100.00
3294;BME280;1659;51.470;6.770;2024-01-06T08:30:31;100696.97;;;4.34;100.00
3294;BME280;1659;51.470;6.770;2024-01-06T08:32:58;100694.34;;;4.31;100.00
3294;BME280;1659;51.470;6.770;2024-01-06T08:35:25;100708.31;;;4.32;100.00
3294;BME280;1659;51.470;6.770;2024-01-06T08:37:52;100709.16;;;4.29;100.00
3294;BME280;1659;51.470;6.770;2024-01-06T08:40:19;100710.03;;;4.28;100.00
3294;BME280;1659;51.470;6.770;2024-01-06T08:42:46;100714.34;;;4.26;100.00
3294;BME280;1659;51.470;6.770;2024-01-06T08:45:13;100716.09;;;4.26;100.00
3294;BME280;1659;51.470;6.770;2024-01-06T08:47:39;100719.59;;;4.26;100.00
3294;BME280;1659;51.470;6.770;2024-01-06T08:50:07;100727.44;;;4.23;100.00
3294;BME280;1659;51.470;6.770;2024-01-06T08:52:34;100724.81;;;4.23;100.00
3294;BME280;1659;51.470;6.770;2024-01-06T08:55:00;100730.91;;;4.22;100.00
3294;BME280;1659;51.470;6.770;2024-01-06T08:57:28;100740.53;;;4.23;100.00
3294;BME280;1659;51.470;6.770;2024-01-06T08:59:55;100746.63;;;4.24;100.00
3294;BME280;1659;51.470;6.770;2024-01-06T09:02:22;100741.34;;;4.21;100.00
3294;BME280;1659;51.470;6.770;2024-01-06T09:04:48;100750.09;;;4.23;100.00
3294;BME280;1659;51.470;6.770;2024-01-06T09:07:15;100751.81;;;4.21;100.00
3294;BME280;1659;51.470;6.770;2024-01-06T09:09:42;100758.81;;;4.20;100.00
3294;BME280;1659;51.470;6.770;2024-01-06T09:12:09;100774.50;;;4.22;100.00
3294;BME280;1659;51.470;6.770;2024-01-06T09:14:37;100773.66;;;4.21;100.00
3294;BME280;1659;51.470;6.770;2024-01-06T09:17:03;100778.00;;;4.22;100.00
3294;BME280;1659;51.470;6.770;2024-01-06T09:19:30;100784.09;;;4.21;100.00
3294;BME280;1659;51.470;6.770;2024-01-06T09:21:57;100784.09;;;4.20;100.00
3294;BME280;1659;51.470;6.770;2024-01-06T09:24:23;100792.81;;;4.22;100.00
3294;BME280;1659;51.470;6.770;2024-01-06T09:26:50;100794.56;;;4.23;100.00
3294;BME280;1659;51.470;6.770;2024-01-06T09:29:16;100808.53;;;4.25;100.00
3294;BME280;1659;51.470;6.770;2024-01-06T09:31:44;100803.28;;;4.23;100.00
3294;BME280;1659;51.470;6.770;2024-01-06T09:34:11;100811.13;;;4.22;100.00
3294;BME280;1659;51.470;6.770;2024-01-06T09:36:38;100814.59;;;4.22;100.00
3294;BME280;1659;51.470;6.770;2024-01-06T09:39:05;100821.59;;;4.23;100.00
3294;BME280;1659;51.470;6.770;2024-01-06T09:41:33;100818.09;;;4.23;100.00
3294;BME280;1659;51.470;6.770;2024-01-06T09:44:00;100815.50;;;4.24;100.00
3294;BME280;1659;51.470;6.770;2024-01-06T09:46:28;100819.84;;;4.24;100.00
3294;BME280;1659;51.470;6.770;2024-01-06T09:48:57;100832.94;;;4.25;100.00
3294;BME280;1659;51.470;6.770;2024-01-06T09:51:25;100824.22;;;4.23;100.00
3294;BME280;1659;51.470;6.770;2024-01-06T09:53:56;100838.16;;;4.24;100.00
3294;BME280;1659;51.470;6.770;2024-01-06T09:56:24;100832.91;;;4.21;100.00
3294;BME280;1659;51.470;6.770;2024-01-06T09:58:51;100829.41;;;4.20;100.00
3294;BME280;1659;51.470;6.770;2024-01-06T10:01:18;100832.88;;;4.19;100.00
3294;BME280;1659;51.470;6.770;2024-01-06T10:03:45;100829.34;;;4.14;100.00
3294;BME280;1659;51.470;6.770;2024-01-06T10:06:13;100840.69;;;4.13;100.00
3294;BME280;1659;51.470;6.770;2024-01-06T10:08:42;100836.31;;;4.12;100.00
3294;BME280;1659;51.470;6.770;2024-01-06T10:11:08;100847.63;;;4.09;100.00
3294;BME280;1659;51.470;6.770;2024-01-06T10:13:35;100849.34;;;4.09;100.00
3294;BME280;1659;51.470;6.770;2024-01-06T10:16:03;100849.38;;;4.07;100.00
3294;BME280;1659;51.470;6.770;2024-01-06T10:18:30;100853.69;;;4.04;100.00
3294;BME280;1659;51.470;6.770;2024-01-06T10:20:57;100865.00;;;4.03;100.00
3294;BME280;1659;51.470;6.770;2024-01-06T10:23:26;100861.53;;;4.02;100.00
3294;BME280;1659;51.470;6.770;2024-01-06T10:25:53;100860.59;;;4.00;100.00
3294;BME280;1659;51.470;6.770;2024-01-06T10:28:20;100864.09;;;3.99;100.00
3294;BME280;1659;51.470;6.770;2024-01-06T10:30:48;100866.69;;;3.97;100.00
3294;BME280;1659;51.470;6.770;2024-01-06T10:33:14;100871.94;;;3.97;100.00
3294;BME280;1659;51.470;6.770;2024-01-06T10:35:42;100879.75;;;3.96;100.00
3294;BME280;1659;51.470;6.770;2024-01-06T10:38:10;100865.78;;;3.92;100.00
3294;BME280;1659;51.470;6.770;2024-01-06T10:40:37;100875.31;;;3.89;100.00
3294;BME280;1659;51.470;6.770;2024-01-06T10:43:05;100883.16;;;3.87;100.00
3294;BME280;1659;51.470;6.770;2024-01-06T10:45:32;100879.63;;;3.85;100.00
3294;BME280;1659;51.470;6.770;2024-01-06T10:47:59;100877.00;;;3.82;100.00
3294;BME280;1659;51.470;6.770;2024-01-06T10:50:27;100878.72;;;3.82;100.00
3294;BME280;1659;51.470;6.770;2024-01-06T10:52:56;100880.47;;;3.80;100.00
3294;BME280;1659;51.470;6.770;2024-01-06T10:55:25;100886.50;;;3.77;100.00
3294;BME280;1659;51.470;6.770;2024-01-06T10:57:55;100883.00;;;3.75;100.00
3294;BME280;1659;51.470;6.770;2024-01-06T11:00:22;100883.00;;;3.75;100.00
3294;BME280;1659;51.470;6.770;2024-01-06T11:02:49;100883.88;;;3.74;100.00
3294;BME280;1659;51.470;6.770;2024-01-06T11:05:18;100889.97;;;3.73;100.00
3294;BME280;1659;51.470;6.770;2024-01-06T11:07:46;100881.25;;;3.71;100.00
3294;BME280;1659;51.470;6.770;2024-01-06T11:10:18;100889.94;;;3.70;100.00
3294;BME280;1659;51.470;6.770;2024-01-06T11:12:46;100890.78;;;3.70;100.00
3294;BME280;1659;51.470;6.770;2024-01-06T11:15:41;100884.69;;;3.70;100.00
3294;BME280;1659;51.470;6.770;2024-01-06T11:18:08;100887.31;;;3.70;100.00
3294;BME280;1659;51.470;6.770;2024-01-06T11:20:34;100889.94;;;3.70;100.00
3294;BME280;1659;51.470;6.770;2024-01-06T11:23:17;100893.41;;;3.69;100.00
3294;BME280;1659;51.470;6.770;2024-01-06T11:25:44;100891.69;;;3.71;100.00
3294;BME280;1659;51.470;6.770;2024-01-06T11:28:10;100898.63;;;3.70;100.00
3294;BME280;1659;51.470;6.770;2024-01-06T11:30:39;100896.88;;;3.68;100.00
3294;BME280;1659;51.470;6.770;2024-01-06T11:33:08;100895.09;;;3.67;100.00
3294;BME280;1659;51.470;6.770;2024-01-06T11:35:37;100888.16;;;3.67;100.00
3294;BME280;1659;51.470;6.770;2024-01-06T11:38:06;100889.91;;;3.68;100.00
3294;BME280;1659;51.470;6.770;2024-01-06T11:40:34;100887.28;;;3.68;100.00
3294;BME280;1659;51.470;6.770;2024-01-06T11:43:03;100889.88;;;3.67;100.00
3294;BME280;1659;51.470;6.770;2024-01-06T11:45:31;100884.63;;;3.62;100.00
3294;BME280;1659;51.470;6.770;2024-01-06T11:48:00;100883.72;;;3.62;100.00
3294;BME280;1659;51.470;6.770;2024-01-06T11:50:29;100883.72;;;3.60;100.00
3294;BME280;1659;51.470;6.770;2024-01-06T11:52:55;100882.84;;;3.59;100.00
3294;BME280;1659;51.470;6.770;2024-01-06T11:55:22;100886.34;;;3.62;100.00
3294;BME280;1659;51.470;6.770;2024-01-06T11:57:49;100881.13;;;3.63;100.00
3294;BME280;1659;51.470;6.770;2024-01-06T12:00:16;100890.75;;;3.64;100.00
3294;BME280;1659;51.470;6.770;2024-01-06T12:02:43;100882.00;;;3.62;100.00
3294;BME280;1659;51.470;6.770;2024-01-06T12:05:15;100881.13;;;3.63;100.00
3294;BME280;1659;51.470;6.770;2024-01-06T12:07:43;100889.81;;;3.61;100.00
3294;BME280;1659;51.470;6.770;2024-01-06T12:10:10;100883.72;;;3.62;100.00
3294;BME280;1659;51.470;6.770;2024-01-06T12:12:37;100889.81;;;3.61;100.00
3294;BME280;1659;51.470;6.770;2024-01-06T12:15:05;100889.78;;;3.57;100.00
3294;BME280;1659;51.470;6.770;2024-01-06T12:17:35;100895.88;;;3.58;100.00
3294;BME280;1659;51.470;6.770;2024-01-06T12:20:03;100891.53;;;3.57;100.00
3294;BME280;1659;51.470;6.770;2024-01-06T12:22:31;100900.25;;;3.57;100.00
3294;BME280;1659;51.470;6.770;2024-01-06T12:24:58;100903.69;;;3.56;100.00
3294;BME280;1659;51.470;6.770;2024-01-06T12:27:25;100905.41;;;3.54;100.00
3294;BME280;1659;51.470;6.770;2024-01-06T12:29:52;100909.78;;;3.54;100.00
3294;BME280;1659;51.470;6.770;2024-01-06T12:32:19;100905.41;;;3.54;100.00
3294;BME280;1659;51.470;6.770;2024-01-06T12:34:46;100920.22;;;3.54;100.00
3294;BME280;1659;51.470;6.770;2024-01-06T12:37:13;100921.06;;;3.53;100.00
3294;BME280;1659;51.470;6.770;2024-01-06T12:39:41;100919.31;;;3.50;100.00
3294;BME280;1659;51.470;6.770;2024-01-06T12:42:10;100914.09;;;3.50;100.00
3294;BME280;1659;51.470;6.770;2024-01-06T12:44:37;100915.84;;;3.50;100.00
3294;BME280;1659;51.470;6.770;2024-01-06T12:47:05;100927.97;;;3.46;100.00
3294;BME280;1659;51.470;6.770;2024-01-06T12:49:31;100917.50;;;3.45;100.00
3294;BME280;1659;51.470;6.770;2024-01-06T12:51:58;100917.47;;;3.43;100.00
3294;BME280;1659;51.470;6.770;2024-01-06T12:54:25;100917.47;;;3.42;100.00
3294;BME280;1659;51.470;6.770;2024-01-06T12:56:53;100920.91;;;3.40;100.00
3294;BME280;1659;51.470;6.770;2024-01-06T12:59:19;100921.78;;;3.38;100.00
3294;BME280;1659;51.470;6.770;2024-01-06T13:01:46;100926.13;;;3.37;100.00
3294;BME280;1659;51.470;6.770;2024-01-06T13:04:12;100932.16;;;3.35;100.00
3294;BME280;1659;51.470;6.770;2024-01-06T13:06:39;100939.13;;;3.33;100.00
3294;BME280;1659;51.470;6.770;2024-01-06T13:09:06;100938.19;;;3.29;100.00